Terminal Aerodrome Forecast
Issued by NWS

Home | Current Version | Previous Version | Text Only | Print | Product List | Glossary On
Versions: 1 2 3 4 5 6 7 8 9 10 11 12 13 14 15 16 17 18 19 20 21 22 23 24
000
FTUS43 KDLH 062300 RRA
TAFBRD
TAF
KBRD 062358Z 0700/0724 13008KT 4SM -SHRA BR BKN050 OVC100
      TEMPO 0700/0703 2SM -RA BR BKN012
     FM070300 16011KT P6SM VCSH SCT025 OVC050 WS015/17040KT
     FM070900 15008KT 4SM BR VCSH BKN050 WS015/17045KT
     FM071500 16012KT 5SM -SHRA BR OVC012
     FM072100 19008KT P6SM VCSH SCT015 BKN040=

USA.gov is the U.S. government's official web portal to all federal, state and local government web resources and services.